sensor_id;sensor_type;location;lat;lon;timestamp;temperature;humidity
41080;DHT22;26826;50.718;7.114;2022-10-18T00:03:29;16.30;99.90
41080;DHT22;26826;50.718;7.114;2022-10-18T00:13:29;16.30;99.90
41080;DHT22;26826;50.718;7.114;2022-10-18T00:23:31;16.30;99.90
41080;DHT22;26826;50.718;7.114;2022-10-18T00:33:31;16.30;99.90
41080;DHT22;26826;50.718;7.114;2022-10-18T00:43:48;16.20;99.90
41080;DHT22;26826;50.718;7.114;2022-10-18T00:53:50;16.20;99.90
41080;DHT22;26826;50.718;7.114;2022-10-18T01:03:51;16.20;99.90
41080;DHT22;26826;50.718;7.114;2022-10-18T01:14:07;16.10;99.90
41080;DHT22;26826;50.718;7.114;2022-10-18T01:24:35;16.10;99.90
41080;DHT22;26826;50.718;7.114;2022-10-18T01:34:41;16.20;99.90
41080;DHT22;26826;50.718;7.114;2022-10-18T01:44:44;16.20;99.90
41080;DHT22;26826;50.718;7.114;2022-10-18T01:54:47;16.20;99.90
41080;DHT22;26826;50.718;7.114;2022-10-18T02:05:00;16.20;99.90
41080;DHT22;26826;50.718;7.114;2022-10-18T02:15:04;16.30;99.90
41080;DHT22;26826;50.718;7.114;2022-10-18T02:25:09;16.20;99.90
41080;DHT22;26826;50.718;7.114;2022-10-18T02:35:24;16.10;99.90
41080;DHT22;26826;50.718;7.114;2022-10-18T02:45:26;16.10;99.90
41080;DHT22;26826;50.718;7.114;2022-10-18T02:55:26;16.20;99.90
41080;DHT22;26826;50.718;7.114;2022-10-18T03:05:27;16.10;99.90
41080;DHT22;26826;50.718;7.114;2022-10-18T03:15:27;16.10;99.90
41080;DHT22;26826;50.718;7.114;2022-10-18T03:25:28;16.10;99.90
41080;DHT22;26826;50.718;7.114;2022-10-18T03:35:28;16.00;99.90
41080;DHT22;26826;50.718;7.114;2022-10-18T03:45:29;16.00;99.90
41080;DHT22;26826;50.718;7.114;2022-10-18T03:55:29;16.00;99.90
41080;DHT22;26826;50.718;7.114;2022-10-18T04:05:30;16.00;99.90
41080;DHT22;26826;50.718;7.114;2022-10-18T04:15:30;16.00;99.90
41080;DHT22;26826;50.718;7.114;2022-10-18T04:25:31;15.90;99.90
41080;DHT22;26826;50.718;7.114;2022-10-18T04:35:31;15.90;99.90
41080;DHT22;26826;50.718;7.114;2022-10-18T04:45:32;15.80;99.90
41080;DHT22;26826;50.718;7.114;2022-10-18T04:55:32;15.90;99.90
41080;DHT22;26826;50.718;7.114;2022-10-18T05:05:33;15.80;99.90
41080;DHT22;26826;50.718;7.114;2022-10-18T05:15:34;15.80;99.90
41080;DHT22;26826;50.718;7.114;2022-10-18T05:25:37;15.80;99.90
41080;DHT22;26826;50.718;7.114;2022-10-18T05:35:38;15.80;99.90
41080;DHT22;26826;50.718;7.114;2022-10-18T05:45:38;15.80;99.90
41080;DHT22;26826;50.718;7.114;2022-10-18T05:55:39;15.90;99.90
41080;DHT22;26826;50.718;7.114;2022-10-18T06:05:39;15.80;99.90
41080;DHT22;26826;50.718;7.114;2022-10-18T06:15:40;15.80;99.90
41080;DHT22;26826;50.718;7.114;2022-10-18T06:25:40;15.80;99.90
41080;DHT22;26826;50.718;7.114;2022-10-18T06:35:41;15.80;99.90
41080;DHT22;26826;50.718;7.114;2022-10-18T06:45:41;15.80;99.90
41080;DHT22;26826;50.718;7.114;2022-10-18T06:55:42;15.80;99.90
41080;DHT22;26826;50.718;7.114;2022-10-18T07:05:42;15.80;99.90
41080;DHT22;26826;50.718;7.114;2022-10-18T07:15:43;15.80;99.90
41080;DHT22;26826;50.718;7.114;2022-10-18T07:25:44;15.80;99.90
41080;DHT22;26826;50.718;7.114;2022-10-18T07:35:44;15.90;99.90
41080;DHT22;26826;50.718;7.114;2022-10-18T07:45:51;16.10;99.90
41080;DHT22;26826;50.718;7.114;2022-10-18T07:55:56;16.10;99.90
41080;DHT22;26826;50.718;7.114;2022-10-18T08:05:57;16.20;99.90
41080;DHT22;26826;50.718;7.114;2022-10-18T08:16:07;16.30;99.90
41080;DHT22;26826;50.718;7.114;2022-10-18T08:26:10;16.20;99.90
41080;DHT22;26826;50.718;7.114;2022-10-18T08:36:13;16.30;99.90
41080;DHT22;26826;50.718;7.114;2022-10-18T08:46:14;16.60;99.90
41080;DHT22;26826;50.718;7.114;2022-10-18T08:56:15;16.60;99.90
41080;DHT22;26826;50.718;7.114;2022-10-18T09:06:34;16.70;99.90
41080;DHT22;26826;50.718;7.114;2022-10-18T09:16:45;16.70;99.90
41080;DHT22;26826;50.718;7.114;2022-10-18T09:26:57;16.70;99.90
41080;DHT22;26826;50.718;7.114;2022-10-18T09:37:01;16.80;99.90
41080;DHT22;26826;50.718;7.114;2022-10-18T09:47:13;17.00;99.90
41080;DHT22;26826;50.718;7.114;2022-10-18T10:07:32;17.20;99.90
41080;DHT22;26826;50.718;7.114;2022-10-18T10:17:33;17.10;99.90
41080;DHT22;26826;50.718;7.114;2022-10-18T10:27:41;17.00;99.90
41080;DHT22;26826;50.718;7.114;2022-10-18T10:37:50;17.10;99.90
41080;DHT22;26826;50.718;7.114;2022-10-18T10:47:52;17.10;99.90
41080;DHT22;26826;50.718;7.114;2022-10-18T10:57:54;17.10;99.90
41080;DHT22;26826;50.718;7.114;2022-10-18T11:07:59;17.30;99.90
41080;DHT22;26826;50.718;7.114;2022-10-18T11:18:03;17.50;99.90
41080;DHT22;26826;50.718;7.114;2022-10-18T11:38:56;17.30;99.90
41080;DHT22;26826;50.718;7.114;2022-10-18T11:59:35;19.20;99.90
41080;DHT22;26826;50.718;7.114;2022-10-18T12:09:40;18.80;99.90
41080;DHT22;26826;50.718;7.114;2022-10-18T12:19:43;18.50;99.90
41080;DHT22;26826;50.718;7.114;2022-10-18T12:30:01;18.40;99.90
41080;DHT22;26826;50.718;7.114;2022-10-18T12:40:14;18.30;99.90
41080;DHT22;26826;50.718;7.114;2022-10-18T12:50:38;18.60;99.90
41080;DHT22;26826;50.718;7.114;2022-10-18T13:10:43;18.70;99.90
41080;DHT22;26826;50.718;7.114;2022-10-18T13:20:57;18.90;99.90
41080;DHT22;26826;50.718;7.114;2022-10-18T13:31:21;21.10;99.90
41080;DHT22;26826;50.718;7.114;2022-10-18T13:41:25;21.70;99.90
41080;DHT22;26826;50.718;7.114;2022-10-18T14:12:40;21.80;99.90
41080;DHT22;26826;50.718;7.114;2022-10-18T14:33:02;21.30;99.90
41080;DHT22;26826;50.718;7.114;2022-10-18T14:53:17;20.60;99.90
41080;DHT22;26826;50.718;7.114;2022-10-18T15:03:20;20.80;99.90
41080;DHT22;26826;50.718;7.114;2022-10-18T15:13:21;20.00;99.90
41080;DHT22;26826;50.718;7.114;2022-10-18T15:23:25;19.30;99.90
41080;DHT22;26826;50.718;7.114;2022-10-18T15:33:26;19.30;99.90
41080;DHT22;26826;50.718;7.114;2022-10-18T15:43:34;19.10;99.90
41080;DHT22;26826;50.718;7.114;2022-10-18T15:53:55;19.20;99.90
41080;DHT22;26826;50.718;7.114;2022-10-18T16:03:56;18.80;99.90
41080;DHT22;26826;50.718;7.114;2022-10-18T16:13:56;18.60;99.90
41080;DHT22;26826;50.718;7.114;2022-10-18T16:23:57;18.40;99.90
41080;DHT22;26826;50.718;7.114;2022-10-18T16:33:58;18.10;99.90
41080;DHT22;26826;50.718;7.114;2022-10-18T16:43:59;17.80;99.90
41080;DHT22;26826;50.718;7.114;2022-10-18T16:53:59;17.40;99.90
41080;DHT22;26826;50.718;7.114;2022-10-18T17:04:00;17.20;99.90
41080;DHT22;26826;50.718;7.114;2022-10-18T17:14:00;16.80;99.90
41080;DHT22;26826;50.718;7.114;2022-10-18T17:24:01;16.60;99.90
41080;DHT22;26826;50.718;7.114;2022-10-18T17:34:04;16.40;99.90
41080;DHT22;26826;50.718;7.114;2022-10-18T17:44:05;15.90;99.90
41080;DHT22;26826;50.718;7.114;2022-10-18T17:54:06;15.70;99.90
41080;DHT22;26826;50.718;7.114;2022-10-18T18:04:07;15.50;99.90
41080;DHT22;26826;50.718;7.114;2022-10-18T18:14:07;15.40;99.90
41080;DHT22;26826;50.718;7.114;2022-10-18T18:24:09;15.20;99.90
41080;DHT22;26826;50.718;7.114;2022-10-18T18:34:10;15.10;99.90
41080;DHT22;26826;50.718;7.114;2022-10-18T18:44:11;15.00;99.90
41080;DHT22;26826;50.718;7.114;2022-10-18T18:54:13;15.00;99.90
41080;DHT22;26826;50.718;7.114;2022-10-18T19:04:14;14.70;99.90
41080;DHT22;26826;50.718;7.114;2022-10-18T19:14:14;14.60;99.90
41080;DHT22;26826;50.718;7.114;2022-10-18T19:24:15;14.50;99.90
41080;DHT22;26826;50.718;7.114;2022-10-18T19:34:16;14.40;99.90
41080;DHT22;26826;50.718;7.114;2022-10-18T19:44:18;14.30;99.90
41080;DHT22;26826;50.718;7.114;2022-10-18T19:54:19;14.20;99.90
41080;DHT22;26826;50.718;7.114;2022-10-18T20:04:19;14.00;99.90
41080;DHT22;26826;50.718;7.114;2022-10-18T20:14:20;13.90;99.90
41080;DHT22;26826;50.718;7.114;2022-10-18T20:24:20;13.80;99.90
41080;DHT22;26826;50.718;7.114;2022-10-18T20:34:21;13.60;99.90
41080;DHT22;26826;50.718;7.114;2022-10-18T20:44:25;13.50;99.90
41080;DHT22;26826;50.718;7.114;2022-10-18T20:54:26;13.30;99.90
41080;DHT22;26826;50.718;7.114;2022-10-18T21:04:26;13.20;99.90
41080;DHT22;26826;50.718;7.114;2022-10-18T21:14:27;13.00;99.90
41080;DHT22;26826;50.718;7.114;2022-10-18T21:24:28;12.90;99.90
41080;DHT22;26826;50.718;7.114;2022-10-18T21:34:29;12.80;99.90
41080;DHT22;26826;50.718;7.114;2022-10-18T21:44:50;12.70;99.90
41080;DHT22;26826;50.718;7.114;2022-10-18T21:54:51;12.50;99.90
41080;DHT22;26826;50.718;7.114;2022-10-18T22:04:52;12.50;99.90
41080;DHT22;26826;50.718;7.114;2022-10-18T22:14:53;12.40;99.90
41080;DHT22;26826;50.718;7.114;2022-10-18T22:24:53;12.20;99.90
41080;DHT22;26826;50.718;7.114;2022-10-18T22:34:54;12.10;99.90
41080;DHT22;26826;50.718;7.114;2022-10-18T22:44:54;12.10;99.90
41080;DHT22;26826;50.718;7.114;2022-10-18T22:54:55;12.00;99.90
41080;DHT22;26826;50.718;7.114;2022-10-18T23:04:55;11.80;99.90
41080;DHT22;26826;50.718;7.114;2022-10-18T23:14:56;11.60;99.90
41080;DHT22;26826;50.718;7.114;2022-10-18T23:24:56;11.50;99.90
41080;DHT22;26826;50.718;7.114;2022-10-18T23:34:57;11.50;99.90
41080;DHT22;26826;50.718;7.114;2022-10-18T23:44:57;11.50;99.90
41080;DHT22;26826;50.718;7.114;2022-10-18T23:54:58;11.40;99.90
